createdAt,value
2017-11-07T00:00:09.150Z,99.99
2017-11-07T00:01:19.125Z,99.99
2017-11-07T00:02:29.096Z,99.99
2017-11-07T00:03:38.730Z,99.99
2017-11-07T00:04:48.706Z,99.99
2017-11-07T00:05:58.997Z,99.99
2017-11-07T00:07:08.963Z,99.99
2017-11-07T00:08:18.940Z,99.99
2017-11-07T00:09:29.483Z,99.99
2017-11-07T00:10:39.447Z,99.99
2017-11-07T00:11:49.766Z,99.99
2017-11-07T00:13:00.058Z,99.99
2017-11-07T00:14:10.357Z,99.99
2017-11-07T00:15:19.998Z,99.15
2017-11-07T00:16:30.309Z,98.77
2017-11-07T00:17:40.586Z,98.49
2017-11-07T00:18:50.556Z,98.58
2017-11-07T00:20:00.854Z,98.68
2017-11-07T00:21:11.151Z,98.3
2017-11-07T00:22:21.450Z,98.2
2017-11-07T00:23:31.749Z,98.77
2017-11-07T00:24:42.046Z,98.3
2017-11-07T00:25:52.013Z,98.77
2017-11-07T00:27:01.978Z,98.58
2017-11-07T00:28:11.947Z,98.86
2017-11-07T00:29:22.228Z,98.58
2017-11-07T00:30:32.566Z,99.52
2017-11-07T00:31:42.556Z,99.71
2017-11-07T00:32:52.198Z,99.52
2017-11-07T00:34:02.486Z,99.62
2017-11-07T00:35:12.782Z,99.52
2017-11-07T00:36:23.074Z,99.62
2017-11-07T00:37:33.369Z,99.52
2017-11-07T00:38:43.658Z,99.43
2017-11-07T00:39:53.953Z,99.71
2017-11-07T00:41:04.246Z,99.33
2017-11-07T00:42:14.225Z,98.96
2017-11-07T00:43:24.513Z,98.77
2017-11-07T00:44:34.818Z,98.2
2017-11-07T00:45:45.100Z,98.58
2017-11-07T00:46:55.385Z,98.68
2017-11-07T00:48:05.351Z,98.58
2017-11-07T00:49:14.991Z,98.58
2017-11-07T00:50:25.274Z,98.58
2017-11-07T00:51:35.235Z,98.58
2017-11-07T00:52:45.194Z,98.58
2017-11-07T00:53:55.483Z,98.63
2017-11-07T00:55:05.789Z,98.96
2017-11-07T00:56:15.751Z,98.25
2017-11-07T00:57:26.041Z,98.54
2017-11-07T00:58:35.998Z,98.44
2017-11-07T00:59:45.999Z,98.72
2017-11-07T01:00:56.278Z,98.72
2017-11-07T01:02:06.248Z,98.25
2017-11-07T01:03:16.534Z,99.1
2017-11-07T01:04:26.496Z,98.82
2017-11-07T01:05:36.790Z,98.72
2017-11-07T01:06:47.078Z,98.54
2017-11-07T01:07:57.086Z,98.25
2017-11-07T01:09:07.383Z,98.35
2017-11-07T01:10:17.670Z,98.54
2017-11-07T01:11:27.632Z,98.54
2017-11-07T01:12:37.922Z,98.72
2017-11-07T01:13:48.229Z,98.54
2017-11-07T01:14:58.190Z,98.35
2017-11-07T01:16:08.165Z,98.06
2017-11-07T01:17:18.124Z,98.16
2017-11-07T01:18:27.760Z,98.06
2017-11-07T01:19:37.714Z,98.16
2017-11-07T01:20:48.046Z,98.35
2017-11-07T01:21:58.015Z,98.25
2017-11-07T01:23:07.971Z,98.06
2017-11-07T01:24:18.291Z,98.25
2017-11-07T01:25:28.247Z,98.25
2017-11-07T01:26:38.536Z,98.35
2017-11-07T01:27:48.160Z,98.06
2017-11-07T01:28:58.455Z,98.06
2017-11-07T01:30:08.749Z,98.06
2017-11-07T01:31:18.706Z,97.97
2017-11-07T01:32:28.669Z,97.68
2017-11-07T01:33:38.966Z,97.97
2017-11-07T01:34:49.268Z,97.78
2017-11-07T01:35:59.572Z,97.68
2017-11-07T01:37:09.861Z,96.64
2017-11-07T01:38:19.823Z,96.73
2017-11-07T01:39:30.124Z,95.88
2017-11-07T01:40:40.424Z,96.26
2017-11-07T01:41:50.383Z,96.26
2017-11-07T01:43:00.706Z,96.07
2017-11-07T01:44:10.679Z,95.69
2017-11-07T01:45:20.648Z,95.69
2017-11-07T01:46:30.962Z,94.46
2017-11-07T01:47:40.934Z,94.18
2017-11-07T01:48:51.216Z,93.7
2017-11-07T01:50:01.180Z,93.42
2017-11-07T01:51:11.472Z,93.42
2017-11-07T01:52:21.775Z,93.42
2017-11-07T01:53:31.736Z,93.23
2017-11-07T01:54:42.037Z,93.23
2017-11-07T01:55:52.001Z,93.8
2017-11-07T01:57:01.993Z,93.7
2017-11-07T01:58:12.284Z,93.8
2017-11-07T01:59:22.596Z,93.89
2017-11-07T02:00:32.560Z,94.37
2017-11-07T02:01:42.857Z,94.27
2017-11-07T02:02:53.160Z,94.37
2017-11-07T02:04:03.447Z,94.46
2017-11-07T02:05:13.739Z,93.99
2017-11-07T02:06:24.036Z,94.46
2017-11-07T02:07:34.330Z,94.08
2017-11-07T02:08:44.638Z,94.46
2017-11-07T02:09:54.928Z,94.46
2017-11-07T02:11:04.910Z,94.46
2017-11-07T02:12:15.210Z,94.65
2017-11-07T02:13:25.509Z,94.56
2017-11-07T02:14:35.794Z,94.65
2017-11-07T02:15:46.083Z,94.93
2017-11-07T02:16:56.377Z,94.65
2017-11-07T02:18:06.667Z,94.93
2017-11-07T02:19:16.962Z,94.27
2017-11-07T02:20:27.247Z,94.08
2017-11-07T02:21:36.888Z,94.65
2017-11-07T02:22:47.199Z,94.46
2017-11-07T02:23:57.156Z,94.56
2017-11-07T02:25:07.456Z,94.65
2017-11-07T02:26:17.433Z,94.37
2017-11-07T02:27:27.716Z,94.46
2017-11-07T02:28:37.355Z,94.13
2017-11-07T02:29:47.683Z,94.18
2017-11-07T02:30:57.969Z,94.56
2017-11-07T02:32:07.963Z,94.89
2017-11-07T02:33:17.932Z,94.7
2017-11-07T02:34:28.222Z,94.6
2017-11-07T02:35:38.521Z,94.98
2017-11-07T02:36:48.828Z,94.6
2017-11-07T02:37:58.799Z,94.98
2017-11-07T02:39:09.081Z,94.7
2017-11-07T02:40:19.060Z,94.7
2017-11-07T02:41:29.350Z,94.89
2017-11-07T02:42:39.318Z,94.51
2017-11-07T02:43:49.613Z,94.79
2017-11-07T02:44:59.901Z,94.6
2017-11-07T02:46:09.890Z,94.79
2017-11-07T02:47:19.885Z,94.79
2017-11-07T02:48:30.183Z,94.51
2017-11-07T02:49:40.146Z,94.6
2017-11-07T02:50:50.435Z,94.6
2017-11-07T02:52:00.743Z,94.6
2017-11-07T02:53:11.030Z,94.6
2017-11-07T02:54:21.321Z,94.89
2017-11-07T02:55:31.289Z,95.26
2017-11-07T02:56:41.573Z,95.55
2017-11-07T02:57:51.215Z,95.17
2017-11-07T02:59:01.517Z,95.74
2017-11-07T03:00:11.450Z,94.79
2017-11-07T03:01:21.753Z,95.55
2017-11-07T03:02:31.709Z,95.74
2017-11-07T03:03:41.021Z,94.89
2017-11-07T03:04:51.322Z,94.98
2017-11-07T03:06:01.627Z,95.74
2017-11-07T03:07:11.925Z,94.89
2017-11-07T03:08:21.895Z,95.74
2017-11-07T03:09:31.918Z,95.74
2017-11-07T03:10:42.208Z,95.45
2017-11-07T03:11:52.510Z,95.74
2017-11-07T03:13:02.470Z,95.55
2017-11-07T03:14:12.767Z,95.36
2017-11-07T03:15:22.729Z,95.64
2017-11-07T03:16:33.025Z,95.74
2017-11-07T03:17:43.319Z,95.93
2017-11-07T03:18:53.286Z,95.55
2017-11-07T03:20:03.578Z,96.12
2017-11-07T03:21:13.867Z,95.45
2017-11-07T03:22:24.160Z,95.74
2017-11-07T03:23:34.452Z,96.21
2017-11-07T03:24:44.419Z,96.21
2017-11-07T03:25:54.722Z,96.12
2017-11-07T03:27:05.028Z,96.31
2017-11-07T03:28:14.989Z,96.59
2017-11-07T03:29:25.279Z,95.93
2017-11-07T03:30:35.830Z,95.83
2017-11-07T03:31:45.787Z,96.02
2017-11-07T03:32:56.084Z,95.64
2017-11-07T03:34:06.379Z,95.93
2017-11-07T03:35:16.334Z,95.93
2017-11-07T03:36:26.618Z,96.69
2017-11-07T03:37:36.907Z,96.21
2017-11-07T03:38:47.227Z,96.02
2017-11-07T03:39:57.531Z,96.31
2017-11-07T03:41:07.849Z,96.21
2017-11-07T03:42:18.150Z,96.78
2017-11-07T03:43:28.430Z,97.16
2017-11-07T03:44:38.400Z,97.54
2017-11-07T03:45:48.683Z,97.44
2017-11-07T03:46:58.976Z,97.44
2017-11-07T03:48:09.268Z,97.39
2017-11-07T03:49:19.586Z,97.3
2017-11-07T03:50:29.551Z,97.58
2017-11-07T03:51:39.841Z,97.39
2017-11-07T03:52:49.797Z,97.39
2017-11-07T03:54:00.083Z,97.39
2017-11-07T03:55:10.375Z,97.58
2017-11-07T03:56:20.661Z,97.58
2017-11-07T03:57:30.944Z,97.3
2017-11-07T03:58:41.231Z,97.68
2017-11-07T03:59:51.539Z,97.87
2017-11-07T04:01:01.820Z,97.68
2017-11-07T04:02:12.121Z,97.39
2017-11-07T04:03:22.432Z,97.58
2017-11-07T04:04:32.417Z,97.3
2017-11-07T04:05:42.702Z,97.77
2017-11-07T04:06:52.979Z,97.39
2017-11-07T04:08:03.284Z,97.58
2017-11-07T04:09:13.274Z,97.58
2017-11-07T04:10:23.235Z,97.58
2017-11-07T04:11:33.537Z,97.49
2017-11-07T04:12:43.822Z,97.49
2017-11-07T04:13:54.110Z,97.49
2017-11-07T04:15:04.393Z,97.2
2017-11-07T04:16:14.707Z,97.77
2017-11-07T04:17:24.984Z,97.58
2017-11-07T04:18:34.944Z,97.39
2017-11-07T04:19:44.906Z,97.58
2017-11-07T04:20:55.179Z,97.77
2017-11-07T04:22:05.148Z,97.58
2017-11-07T04:23:15.113Z,97.49
2017-11-07T04:24:25.409Z,97.49
2017-11-07T04:25:34.727Z,97.49
2017-11-07T04:26:45.018Z,97.49
2017-11-07T04:27:55.315Z,97.39
2017-11-07T04:29:04.949Z,97.49
2017-11-07T04:30:14.733Z,97.49
2017-11-07T04:31:24.689Z,97.49
2017-11-07T04:32:34.984Z,97.77
2017-11-07T04:33:45.283Z,97.87
2017-11-07T04:34:55.242Z,97.68
2017-11-07T04:36:05.532Z,97.87
2017-11-07T04:37:15.818Z,97.77
2017-11-07T04:38:26.123Z,98.34
2017-11-07T04:39:36.416Z,97.96
2017-11-07T04:40:46.705Z,98.15
2017-11-07T04:41:56.347Z,98.53
2017-11-07T04:43:06.309Z,98.34
2017-11-07T04:44:16.604Z,98.15
2017-11-07T04:45:26.889Z,98.53
2017-11-07T04:46:37.197Z,98.34
2017-11-07T04:47:47.504Z,98.91
2017-11-07T04:48:57.786Z,99.05
2017-11-07T04:50:08.077Z,98.91
2017-11-07T04:51:18.366Z,98.96
2017-11-07T04:52:28.662Z,99.1
2017-11-07T04:53:38.614Z,98.2
2017-11-07T04:54:48.890Z,98.39
2017-11-07T04:55:58.865Z,98.29
2017-11-07T04:57:08.844Z,98.77
2017-11-07T04:58:19.149Z,98.67
2017-11-07T04:59:29.114Z,98.86
2017-11-07T05:00:39.397Z,99.05
2017-11-07T05:01:49.689Z,99.05
2017-11-07T05:02:59.988Z,98.2
2017-11-07T05:04:09.943Z,98.96
2017-11-07T05:05:19.902Z,98.67
2017-11-07T05:06:30.194Z,98.86
2017-11-07T05:07:40.487Z,98.77
2017-11-07T05:08:50.766Z,98.48
2017-11-07T05:10:01.061Z,98.29
2017-11-07T05:11:11.353Z,98.29
2017-11-07T05:12:21.648Z,98.48
2017-11-07T05:13:31.956Z,98.58
2017-11-07T05:14:41.953Z,98.67
2017-11-07T05:15:52.245Z,98.48
2017-11-07T05:17:02.536Z,98.48
2017-11-07T05:18:12.847Z,98.1
2017-11-07T05:19:23.138Z,98.58
2017-11-07T05:20:33.109Z,98.1
2017-11-07T05:21:43.077Z,98.29
2017-11-07T05:22:53.048Z,98.39
2017-11-07T05:24:03.353Z,98.39
2017-11-07T05:25:13.317Z,98.48
2017-11-07T05:26:23.281Z,98.1
2017-11-07T05:27:33.574Z,97.91
2017-11-07T05:28:43.875Z,98.48
2017-11-07T05:29:54.165Z,98.39
2017-11-07T05:31:04.474Z,98.48
2017-11-07T05:32:14.777Z,98.48
2017-11-07T05:33:25.066Z,98.39
2017-11-07T05:34:34.715Z,98.39
2017-11-07T05:35:45.035Z,98.67
2017-11-07T05:36:55.332Z,98.67
2017-11-07T05:38:05.652Z,98.39
2017-11-07T05:39:15.984Z,98.58
2017-11-07T05:40:26.277Z,98.48
2017-11-07T05:41:35.912Z,98.29
2017-11-07T05:42:45.876Z,98.39
2017-11-07T05:43:56.169Z,98.67
2017-11-07T05:45:06.392Z,98.2
2017-11-07T05:46:16.691Z,98.96
2017-11-07T05:47:26.968Z,98.77
2017-11-07T05:48:37.324Z,98.96
2017-11-07T05:49:47.621Z,98.86
2017-11-07T05:50:57.904Z,99.05
2017-11-07T05:52:08.197Z,98.86
2017-11-07T05:53:18.482Z,98.86
2017-11-07T05:54:28.782Z,98.86
2017-11-07T05:55:39.070Z,98.86
2017-11-07T05:56:49.352Z,98.77
2017-11-07T05:57:59.645Z,98.1
2017-11-07T05:59:09.936Z,98.39
2017-11-07T06:00:19.902Z,98.29
2017-11-07T06:01:30.209Z,98.67
2017-11-07T06:02:40.501Z,98.1
2017-11-07T06:03:50.789Z,99.05
2017-11-07T06:05:01.079Z,99.62
2017-11-07T06:06:11.367Z,99.43
2017-11-07T06:07:21.665Z,99.33
2017-11-07T06:08:31.984Z,99.33
2017-11-07T06:09:42.282Z,98.39
2017-11-07T06:10:52.268Z,98.96
2017-11-07T06:12:02.569Z,98.1
2017-11-07T06:13:12.852Z,98.58
2017-11-07T06:14:23.153Z,98.39
2017-11-07T06:15:33.667Z,98.1
2017-11-07T06:16:43.943Z,98.39
2017-11-07T06:17:54.236Z,98.67
2017-11-07T06:19:04.573Z,98.29
2017-11-07T06:20:14.859Z,98.1
2017-11-07T06:21:24.813Z,98.58
2017-11-07T06:22:34.785Z,98.1
2017-11-07T06:23:44.748Z,98.86
2017-11-07T06:24:55.045Z,98.96
2017-11-07T06:26:05.036Z,98.48
2017-11-07T06:27:15.340Z,98.96
2017-11-07T06:28:25.653Z,98.48
2017-11-07T06:29:35.946Z,98.01
2017-11-07T06:30:46.239Z,98.48
2017-11-07T06:31:56.524Z,98.39
2017-11-07T06:33:06.813Z,98.29
2017-11-07T06:34:17.111Z,98.39
2017-11-07T06:35:27.401Z,98.1
2017-11-07T06:36:37.372Z,98.39
2017-11-07T06:37:47.370Z,98.2
2017-11-07T06:38:57.671Z,98.58
2017-11-07T06:40:07.968Z,98.2
2017-11-07T06:41:18.274Z,99.43
2017-11-07T06:42:28.564Z,99.15
2017-11-07T06:43:38.523Z,99.33
2017-11-07T06:44:48.499Z,99.33
2017-11-07T06:45:58.798Z,99.62
2017-11-07T06:47:09.090Z,99.62
2017-11-07T06:48:19.063Z,99.71
2017-11-07T06:49:28.370Z,99.62
2017-11-07T06:50:38.661Z,98.39
2017-11-07T06:51:48.313Z,98.2
2017-11-07T06:52:58.626Z,99.15
2017-11-07T06:54:08.609Z,98.58
2017-11-07T06:55:18.897Z,98.67
2017-11-07T06:56:29.185Z,98.77
2017-11-07T06:57:39.470Z,98.58
2017-11-07T06:58:49.113Z,98.48
2017-11-07T06:59:59.422Z,98.58
2017-11-07T07:01:09.720Z,98.48
2017-11-07T07:02:19.984Z,98.2
2017-11-07T07:03:29.595Z,98.67
2017-11-07T07:04:39.862Z,98.2
2017-11-07T07:05:50.137Z,98.58
2017-11-07T07:07:00.056Z,98.44
2017-11-07T07:08:10.303Z,98.53
2017-11-07T07:09:20.269Z,98.25
2017-11-07T07:10:30.189Z,98.63
2017-11-07T07:11:40.152Z,98.25
2017-11-07T07:12:50.130Z,98.72
2017-11-07T07:14:00.112Z,98.53
2017-11-07T07:15:10.420Z,98.63
2017-11-07T07:16:20.716Z,98.15
2017-11-07T07:17:31.004Z,98.44
2017-11-07T07:18:40.647Z,98.63
2017-11-07T07:19:50.951Z,98.53
2017-11-07T07:21:00.922Z,98.72
2017-11-07T07:22:11.224Z,98.53
2017-11-07T07:23:21.523Z,98.53
2017-11-07T07:24:31.837Z,98.25
2017-11-07T07:25:41.844Z,99.29
2017-11-07T07:26:52.147Z,99.29
2017-11-07T07:28:02.446Z,99.38
2017-11-07T07:29:12.728Z,99.85
2017-11-07T07:30:23.016Z,99.9
2017-11-07T07:31:33.315Z,99.99
2017-11-07T07:32:43.288Z,99.9
2017-11-07T07:33:53.575Z,99.81
2017-11-07T07:35:03.873Z,99.99
2017-11-07T07:36:13.509Z,99.99
2017-11-07T07:37:23.816Z,99.99
2017-11-07T07:38:33.790Z,99.99
2017-11-07T07:39:43.772Z,99.99
2017-11-07T07:40:54.116Z,99.99
2017-11-07T07:42:04.401Z,99.52
2017-11-07T07:43:14.766Z,98.2
2017-11-07T07:44:24.738Z,97.49
2017-11-07T07:45:34.765Z,97.4
2017-11-07T07:46:44.739Z,96.45
2017-11-07T07:47:54.714Z,95.88
2017-11-07T07:49:05.026Z,97.73
2017-11-07T07:50:15.319Z,97.16
2017-11-07T07:51:25.629Z,98.21
2017-11-07T07:52:35.618Z,99.99
2017-11-07T07:53:45.915Z,99.87
2017-11-07T07:54:56.262Z,99.99
2017-11-07T07:56:06.285Z,99.99
2017-11-07T07:57:16.613Z,99.99
2017-11-07T07:58:27.159Z,99.99
2017-11-07T07:59:37.075Z,99.99
2017-11-07T08:00:47.883Z,99.99
2017-11-07T08:01:58.181Z,99.99
2017-11-07T08:03:08.503Z,99.99
2017-11-07T08:04:18.802Z,99.99
2017-11-07T08:05:29.131Z,99.99
2017-11-07T08:06:39.453Z,99.99
2017-11-07T08:07:49.132Z,99.99
2017-11-07T08:08:59.444Z,99.99
2017-11-07T08:10:09.446Z,99.99
2017-11-07T08:11:19.764Z,99.99
2017-11-07T08:12:30.060Z,99.99
2017-11-07T08:13:40.357Z,99.99
2017-11-07T08:14:50.674Z,99.99
2017-11-07T08:16:00.650Z,99.99
2017-11-07T08:17:10.960Z,99.99
2017-11-07T08:18:20.632Z,99.99
2017-11-07T08:19:30.923Z,99.99
2017-11-07T08:20:40.891Z,99.99
2017-11-07T08:21:50.920Z,99.99
2017-11-07T08:23:00.887Z,99.99
2017-11-07T08:24:10.901Z,99.99
2017-11-07T08:25:21.218Z,99.99
2017-11-07T08:26:31.515Z,99.99
2017-11-07T08:27:41.488Z,99.99
2017-11-07T08:28:51.794Z,99.99
2017-11-07T08:30:01.772Z,99.99
2017-11-07T08:31:12.065Z,99.99
2017-11-07T08:32:22.394Z,99.99
2017-11-07T08:33:32.693Z,99.99
2017-11-07T08:34:43.016Z,99.99
2017-11-07T08:35:53.310Z,99.99
2017-11-07T08:37:03.629Z,99.99
2017-11-07T08:38:13.925Z,99.99
2017-11-07T08:39:24.235Z,97.31
2017-11-07T08:40:34.548Z,97.03
2017-11-07T08:41:44.864Z,98.65
2017-11-07T08:42:55.176Z,97.03
2017-11-07T08:44:05.151Z,96.84
2017-11-07T08:45:15.468Z,98.18
2017-11-07T08:46:25.772Z,94.93
2017-11-07T08:47:36.084Z,96.17
2017-11-07T08:48:46.401Z,95.32
2017-11-07T08:49:56.386Z,94.93
2017-11-07T08:51:06.697Z,94.37
2017-11-07T08:52:16.679Z,97.99
2017-11-07T08:53:26.976Z,99.41
2017-11-07T08:54:37.292Z,94.98
2017-11-07T08:55:46.985Z,94.13
2017-11-07T08:56:56.951Z,94.79
2017-11-07T08:58:07.261Z,96.03
2017-11-07T08:59:17.238Z,94.56
2017-11-07T09:00:26.894Z,92.84
2017-11-07T09:01:37.202Z,93.17
2017-11-07T09:02:47.511Z,89.83
2017-11-07T09:03:57.183Z,89.17
2017-11-07T09:05:07.154Z,88.59
2017-11-07T09:06:17.127Z,89.83
2017-11-07T09:07:27.457Z,89.36
2017-11-07T09:08:37.636Z,90.31
2017-11-07T09:09:47.939Z,89.64
2017-11-07T09:10:58.243Z,87.93
2017-11-07T09:12:08.542Z,90.31
2017-11-07T09:13:18.515Z,88.35
2017-11-07T09:14:28.496Z,87.11
2017-11-07T09:15:38.840Z,87.97
2017-11-07T09:16:48.521Z,87.54
2017-11-07T09:17:58.857Z,87.93
2017-11-07T09:19:09.184Z,87.35
2017-11-07T09:20:19.506Z,88.98
2017-11-07T09:21:29.475Z,91.64
2017-11-07T09:22:39.798Z,88.64
2017-11-07T09:23:49.786Z,87.02
2017-11-07T09:24:59.767Z,85.15
2017-11-07T09:26:10.299Z,85.3
2017-11-07T09:27:20.599Z,85.82
2017-11-07T09:28:30.919Z,85.53
2017-11-07T09:29:40.902Z,85.15
2017-11-07T09:30:51.221Z,83.81
2017-11-07T09:32:01.557Z,84.1
2017-11-07T09:33:11.873Z,85.44
2017-11-07T09:34:21.851Z,85.01
2017-11-07T09:35:31.826Z,86.92
2017-11-07T09:36:41.474Z,86.06
2017-11-07T09:37:51.792Z,87.02
2017-11-07T09:39:02.109Z,87.83
2017-11-07T09:40:12.083Z,86.59
2017-11-07T09:41:22.393Z,86.88
2017-11-07T09:42:32.691Z,87.35
2017-11-07T09:43:43.009Z,88.59
2017-11-07T09:44:53.518Z,88.02
2017-11-07T09:46:03.535Z,87.93
2017-11-07T09:47:13.188Z,86.49
2017-11-07T09:48:23.491Z,87.68
2017-11-07T09:49:33.829Z,87.59
2017-11-07T09:50:44.139Z,86.39
2017-11-07T09:51:54.151Z,84.77
2017-11-07T09:53:04.454Z,83.53
2017-11-07T09:54:14.427Z,84.91
2017-11-07T09:55:24.738Z,84.39
2017-11-07T09:56:35.043Z,84.58
2017-11-07T09:57:45.032Z,83.96
2017-11-07T09:58:55.333Z,85.82
2017-11-07T10:00:05.316Z,84.48
2017-11-07T10:01:15.578Z,84.58
2017-11-07T10:02:25.889Z,84.1
2017-11-07T10:03:36.205Z,86.92
2017-11-07T10:04:46.536Z,83.43
2017-11-07T10:05:56.840Z,82.57
2017-11-07T10:07:06.485Z,83.91
2017-11-07T10:08:16.467Z,84.67
2017-11-07T10:09:26.354Z,84
2017-11-07T10:10:36.010Z,84
2017-11-07T10:11:46.314Z,83.43
2017-11-07T10:12:56.293Z,84.2
2017-11-07T10:14:06.608Z,84.58
2017-11-07T10:15:16.617Z,84.92
2017-11-07T10:16:26.944Z,85.39
2017-11-07T10:17:36.259Z,86.06
2017-11-07T10:18:46.590Z,85.87
2017-11-07T10:19:56.911Z,85.58
2017-11-07T10:21:07.474Z,85.68
2017-11-07T10:22:17.772Z,86.16
2017-11-07T10:23:28.073Z,85.58
2017-11-07T10:24:38.058Z,83.96
2017-11-07T10:25:48.407Z,84.44
2017-11-07T10:26:58.394Z,84.58
2017-11-07T10:28:08.714Z,85.05
2017-11-07T10:29:19.035Z,84
2017-11-07T10:30:29.024Z,82.81
2017-11-07T10:31:39.344Z,82.71
2017-11-07T10:32:49.657Z,82.14
2017-11-07T10:33:59.767Z,81.18
2017-11-07T10:35:09.430Z,81.03
2017-11-07T10:36:19.757Z,81.09
2017-11-07T10:37:29.739Z,81.95
2017-11-07T10:38:40.366Z,82.95
2017-11-07T10:39:50.708Z,83.24
2017-11-07T10:41:01.025Z,82.32
2017-11-07T10:42:11.382Z,81.95
2017-11-07T10:43:21.700Z,82.57
2017-11-07T10:44:31.700Z,83.62
2017-11-07T10:45:42.028Z,84.48
2017-11-07T10:46:52.397Z,84.92
2017-11-07T10:48:02.742Z,85.11
2017-11-07T10:49:13.060Z,86.78
2017-11-07T10:50:23.082Z,87.93
2017-11-07T10:51:33.071Z,88.55
2017-11-07T10:52:43.399Z,89.22
2017-11-07T10:53:53.729Z,89.69
2017-11-07T10:55:04.029Z,89.6
2017-11-07T10:56:14.337Z,89.98
2017-11-07T10:57:24.920Z,90.74
2017-11-07T10:58:34.923Z,90.93
2017-11-07T10:59:44.973Z,91.65
2017-11-07T11:00:55.324Z,92.32
2017-11-07T11:02:05.657Z,93.08
2017-11-07T11:03:15.324Z,93.08
2017-11-07T11:04:25.638Z,93.79
2017-11-07T11:05:35.974Z,95.12
2017-11-07T11:06:46.305Z,96.65
2017-11-07T11:07:56.641Z,96.94
2017-11-07T11:09:06.997Z,96.89
2017-11-07T11:10:17.339Z,97.65
2017-11-07T11:11:27.700Z,97.93
2017-11-07T11:12:38.006Z,98.22
2017-11-07T11:13:48.353Z,98.03
2017-11-07T11:14:58.693Z,98.32
2017-11-07T11:16:09.250Z,98.5
2017-11-07T11:17:19.621Z,98.6
2017-11-07T11:18:29.625Z,98.79
2017-11-07T11:19:40.184Z,97.93
2017-11-07T11:20:50.486Z,98.13
2017-11-07T11:22:00.805Z,98.22
2017-11-07T11:23:11.110Z,98.5
2017-11-07T11:24:21.357Z,98.79
2017-11-07T11:25:31.393Z,97.84
2017-11-07T11:26:41.719Z,97.46
2017-11-07T11:27:52.052Z,98.5
2017-11-07T11:29:02.100Z,97.46
2017-11-07T11:30:12.667Z,98.17
2017-11-07T11:31:23.024Z,98.46
2017-11-07T11:32:33.337Z,98.46
2017-11-07T11:33:43.341Z,98.55
2017-11-07T11:34:53.759Z,99.12
2017-11-07T11:36:03.740Z,99.12
2017-11-07T11:37:14.120Z,99.6
2017-11-07T11:38:24.465Z,99.69
2017-11-07T11:39:35.051Z,99.41
2017-11-07T11:40:45.382Z,99.31
2017-11-07T11:41:55.766Z,99.41
2017-11-07T11:43:06.098Z,99.5
2017-11-07T11:44:16.064Z,99.99
2017-11-07T11:45:26.325Z,99.22
2017-11-07T11:46:36.843Z,99.5
2017-11-07T11:47:47.162Z,99.99
2017-11-07T11:48:57.491Z,98.74
2017-11-07T11:50:08.004Z,98.46
2017-11-07T11:51:18.306Z,98.65
2017-11-07T11:52:28.296Z,99.31
2017-11-07T11:53:38.612Z,98.65
2017-11-07T11:54:48.598Z,98.5
2017-11-07T11:55:58.898Z,98.03
2017-11-07T11:57:09.186Z,97.65
2017-11-07T11:58:19.492Z,98.98
2017-11-07T11:59:29.804Z,98.22
2017-11-07T12:00:39.467Z,98.22
2017-11-07T12:01:49.461Z,98.22
2017-11-07T12:02:59.428Z,98.55
2017-11-07T12:04:09.731Z,98.32
2017-11-07T12:05:20.030Z,98.32
2017-11-07T12:06:30.016Z,97.79
2017-11-07T12:07:40.314Z,98.32
2017-11-07T12:08:50.627Z,98.6
2017-11-07T12:10:00.928Z,98.32
2017-11-07T12:11:10.888Z,98.03
2017-11-07T12:12:21.199Z,97.55
2017-11-07T12:13:31.172Z,97.84
2017-11-07T12:14:41.467Z,97.55
2017-11-07T12:15:51.471Z,96.7
2017-11-07T12:17:01.782Z,96.98
2017-11-07T12:18:12.060Z,97.46
2017-11-07T12:19:22.378Z,97.65
2017-11-07T12:20:32.697Z,97.65
2017-11-07T12:21:42.675Z,96.79
2017-11-07T12:22:52.983Z,96.89
2017-11-07T12:24:02.637Z,96.89
2017-11-07T12:25:12.975Z,97.31
2017-11-07T12:26:23.327Z,96.36
2017-11-07T12:27:33.622Z,96.08
2017-11-07T12:28:43.992Z,96.17
2017-11-07T12:29:54.315Z,97.31
2017-11-07T12:31:04.643Z,96.41
2017-11-07T12:32:14.970Z,96.41
2017-11-07T12:33:25.286Z,96.17
2017-11-07T12:34:35.593Z,96.7
2017-11-07T12:35:45.563Z,97.08
2017-11-07T12:36:55.881Z,96.89
2017-11-07T12:38:06.189Z,96.6
2017-11-07T12:39:16.174Z,96.7
2017-11-07T12:40:26.504Z,96.51
2017-11-07T12:41:37.077Z,97.46
2017-11-07T12:42:47.402Z,97.36
2017-11-07T12:43:57.780Z,96.08
2017-11-07T12:45:08.097Z,96.55
2017-11-07T12:46:18.419Z,96.94
2017-11-07T12:47:28.750Z,96.17
2017-11-07T12:48:38.400Z,95.51
2017-11-07T12:49:48.731Z,95.32
2017-11-07T12:50:58.729Z,96.17
2017-11-07T12:52:09.149Z,95.89
2017-11-07T12:53:19.503Z,96.84
2017-11-07T12:54:29.818Z,96.17
2017-11-07T12:55:40.140Z,94.93
2017-11-07T12:56:49.797Z,94.17
2017-11-07T12:58:00.377Z,94.74
2017-11-07T12:59:10.362Z,94.03
2017-11-07T13:00:20.335Z,94.56
2017-11-07T13:01:30.642Z,94.93
2017-11-07T13:02:40.948Z,94.65
2017-11-07T13:03:51.256Z,95.6
2017-11-07T13:05:01.558Z,94.93
2017-11-07T13:06:11.196Z,95.03
2017-11-07T13:07:21.172Z,95.12
2017-11-07T13:08:31.154Z,96.08
2017-11-07T13:09:41.477Z,96.08
2017-11-07T13:10:51.787Z,96.27
2017-11-07T13:12:02.093Z,96.17
2017-11-07T13:13:12.069Z,96.84
2017-11-07T13:14:22.400Z,96.55
2017-11-07T13:15:32.702Z,97.03
2017-11-07T13:16:42.673Z,97.13
2017-11-07T13:17:52.982Z,97.89
2017-11-07T13:19:02.965Z,97.65
2017-11-07T13:20:12.614Z,98.32
2017-11-07T13:21:22.284Z,98.03
2017-11-07T13:22:32.596Z,97.84
2017-11-07T13:23:42.907Z,98.22
2017-11-07T13:24:53.209Z,98.41
2017-11-07T13:26:03.759Z,98.32
2017-11-07T13:27:13.392Z,98.41
2017-11-07T13:28:23.699Z,98.32
2017-11-07T13:29:34.252Z,99.36
2017-11-07T13:30:44.565Z,99.36
2017-11-07T13:31:54.887Z,99.36
2017-11-07T13:33:05.181Z,99.55
2017-11-07T13:34:15.149Z,99.99
2017-11-07T13:35:25.454Z,99.99
2017-11-07T13:36:35.754Z,99.99
2017-11-07T13:37:45.742Z,99.99
2017-11-07T13:38:56.024Z,99.99
2017-11-07T13:40:06.009Z,99.99
2017-11-07T13:41:15.984Z,99.99
2017-11-07T13:42:26.304Z,99.99
2017-11-07T13:43:36.290Z,99.99
2017-11-07T13:44:46.620Z,99.99
2017-11-07T13:45:56.633Z,99.99
2017-11-07T13:47:06.934Z,99.99
2017-11-07T13:48:16.930Z,99.99
2017-11-07T13:49:27.255Z,99.99
2017-11-07T13:50:37.565Z,99.99
2017-11-07T13:51:47.871Z,99.99
2017-11-07T13:52:57.833Z,99.99
2017-11-07T13:54:07.809Z,99.99
2017-11-07T13:55:18.108Z,99.99
2017-11-07T13:56:28.446Z,99.99
2017-11-07T13:57:38.738Z,99.99
2017-11-07T13:58:49.043Z,99.99
2017-11-07T13:59:59.340Z,99.99
2017-11-07T14:01:09.657Z,99.99
2017-11-07T14:02:19.975Z,99.99
2017-11-07T14:03:30.306Z,99.99
2017-11-07T14:04:40.608Z,99.99
2017-11-07T14:05:50.957Z,99.99
2017-11-07T14:07:01.268Z,99.99
2017-11-07T14:08:11.243Z,99.99
2017-11-07T14:09:21.789Z,99.99
2017-11-07T14:10:32.102Z,99.99
2017-11-07T14:11:42.413Z,99.99
2017-11-07T14:12:52.393Z,99.99
2017-11-07T14:14:02.707Z,99.99
2017-11-07T14:15:13.022Z,99.99
2017-11-07T14:16:22.992Z,99.99
2017-11-07T14:17:33.531Z,99.99
2017-11-07T14:18:43.840Z,99.99
2017-11-07T14:19:53.866Z,99.99
2017-11-07T14:21:04.217Z,99.99
2017-11-07T14:22:14.205Z,99.99
2017-11-07T14:23:24.519Z,99.99
2017-11-07T14:24:34.501Z,99.99
2017-11-07T14:25:44.805Z,99.99
2017-11-07T14:26:54.455Z,99.99
2017-11-07T14:28:04.775Z,99.99
2017-11-07T14:29:15.067Z,99.99
2017-11-07T14:30:25.371Z,99.99
2017-11-07T14:31:35.365Z,99.99
2017-11-07T14:32:45.344Z,99.99
2017-11-07T14:33:55.390Z,99.99
2017-11-07T14:35:05.696Z,99.99
2017-11-07T14:36:15.697Z,99.99
2017-11-07T14:37:25.681Z,99.99
2017-11-07T14:38:35.973Z,99.99
2017-11-07T14:39:46.271Z,99.99
2017-11-07T14:40:56.253Z,99.99
2017-11-07T14:42:05.902Z,99.99
2017-11-07T14:43:15.878Z,99.99
2017-11-07T14:44:25.854Z,99.99
2017-11-07T14:45:36.163Z,99.99
2017-11-07T14:46:45.832Z,99.99
2017-11-07T14:47:56.143Z,99.99
2017-11-07T14:49:06.519Z,99.99
2017-11-07T14:50:17.082Z,99.99
2017-11-07T14:51:27.396Z,99.99
2017-11-07T14:52:37.715Z,99.99
2017-11-07T14:53:48.002Z,99.99
2017-11-07T14:54:58.325Z,99.99
2017-11-07T14:56:08.662Z,99.99
2017-11-07T14:57:18.959Z,99.99
2017-11-07T14:58:28.940Z,99.99
2017-11-07T14:59:39.228Z,99.99
2017-11-07T15:00:49.195Z,99.99
2017-11-07T15:01:59.175Z,99.99
2017-11-07T15:03:09.146Z,99.99
2017-11-07T15:04:19.128Z,99.99
2017-11-07T15:05:29.454Z,99.99
2017-11-07T15:06:39.756Z,99.99